Glendale, Arkansas
Current Conditions -  °F | °C
As of 6:53 PM on Thursday 27 Nov 2014 (Local Time) from KPBF Reporting Station
Clear Clear  
Wind Chill: 38°   Ceiling: Unl
Heat Index: 38°   Visibility: 10mi
Dew Point: 32°   Wind: 3mph
Humidity: 79%   Direction: 170°S
Pressure: 30.49"   Gusts: NA
Location:  33.924°N, 91.8685°W
Report Text: KPBF 280053Z AUTO 17003KT 10SM CLR 03/00 A3049 RMK AO2 SLP324 T00330000
Loading
Personal Weather Stations






























Interactive Weather Map New forecast layout! Learn more

10-Day Weather Forecast

Advertisements
Track Severe Weather on mobile